»·PEaware :: N192MW KRIV-KOXR

N192MW :: KRIV-KOXR

FLIGHT INFORMATION

Flight Status: Arrived
Operator: Privately registered:
United States
More flights under this callsign
Pilot: Luther B. (3998)
Aircraft: CESSNA 172 SKYHAWK
(C172)
More flights by this aircraft type
Origin: KRIV March ARB
United States
Destination: KOXR Oxnard
United States
More flights between these airports :: More routes between these airports
Route: KRIV COLTN NNEDD KOXR
File this flight plan on PilotEdge
Remarks:
Altitude:
(Current/Filed)
6,500ft
Speed:
(Current/Filed)
150kts
Departed: 06-Dec-17 09:26 PM
Arrived: 06-Dec-17 10:25 PM
Distance/Time
Traveled:
0nm/0:59
Distance/Time
To Go:
Arrived

Flight Plot

Page will automatically refresh every two minutes.

Flight plan parsing failed; only flown route is shown


Map Options




Map Legend


Flown Route
Filed Route
Departure Airport
Arrival Airport
Navaid (VOR, NDB)
Fix

Horizontal Profiles

Position Reports

Time Latitude Longitude Heading Altitude Ground
Speed
06-Dec-17 21:19 33.883017 -117.251551 55 1538ft 0kts
06-Dec-17 21:20 33.883017 -117.251551 55 1538ft 0kts
06-Dec-17 21:21 33.883017 -117.251551 55 1538ft 0kts
06-Dec-17 21:22 33.883017 -117.251551 55 1538ft 0kts
06-Dec-17 21:23 33.883249 -117.251534 317 1538ft 9kts
06-Dec-17 21:24 33.880702 -117.249507 171 1538ft 11kts
06-Dec-17 21:25 33.875963 -117.251000 204 1538ft 20kts
06-Dec-17 21:26 33.870138 -117.248231 149 1538ft 36kts
06-Dec-17 21:27 33.866601 -117.246127 182 1538ft 10kts
06-Dec-17 21:28 33.865583 -117.247544 265 1538ft 0kts
06-Dec-17 21:29 33.865583 -117.247544 265 1538ft 0kts
06-Dec-17 21:30 33.865583 -117.247544 265 1538ft 0kts
06-Dec-17 21:31 33.868951 -117.250986 329 1538ft 69kts
06-Dec-17 21:32 33.884449 -117.265425 325 2298ft 67kts
06-Dec-17 21:33 33.888564 -117.290247 270 3006ft 79kts
06-Dec-17 21:34 33.888296 -117.316190 279 3694ft 77kts
06-Dec-17 21:35 33.889000 -117.342152 283 4325ft 77kts
06-Dec-17 21:36 33.891724 -117.371167 286 4519ft 115kts
06-Dec-17 21:37 33.900713 -117.410215 293 3734ft 128kts
06-Dec-17 21:38 33.912408 -117.455188 293 2262ft 128kts
06-Dec-17 21:39 33.920287 -117.490096 293 2345ft 100kts
06-Dec-17 21:40 33.927368 -117.523512 293 2342ft 103kts
06-Dec-17 21:41 33.934494 -117.557102 293 2340ft 103kts
06-Dec-17 21:42 33.941486 -117.590833 293 2340ft 104kts
06-Dec-17 21:43 33.948539 -117.624549 293 2339ft 103kts
06-Dec-17 21:44 33.955516 -117.657825 293 2339ft 102kts
06-Dec-17 21:45 33.962993 -117.689850 293 2338ft 99kts
06-Dec-17 21:46 33.977944 -117.715251 313 2340ft 94kts
06-Dec-17 21:47 33.992552 -117.740200 312 2558ft 85kts
06-Dec-17 21:48 34.005170 -117.766313 312 3207ft 93kts
06-Dec-17 21:49 34.018673 -117.792324 319 3830ft 90kts
06-Dec-17 21:50 34.033206 -117.816775 320 4433ft 88kts
06-Dec-17 21:51 34.047484 -117.840554 320 5037ft 85kts
06-Dec-17 21:52 34.060784 -117.863290 319 5605ft 80kts
06-Dec-17 21:53 34.075945 -117.887833 320 5775ft 109kts
06-Dec-17 21:54 34.094733 -117.914953 320 5720ft 99kts
06-Dec-17 21:55 34.108730 -117.942103 277 5737ft 101kts
06-Dec-17 21:56 34.110800 -117.976121 279 5691ft 105kts
06-Dec-17 21:57 34.112926 -118.011422 278 5703ft 96kts
06-Dec-17 21:58 34.114817 -118.044948 281 5727ft 103kts
06-Dec-17 21:59 34.117426 -118.079886 282 5733ft 104kts
06-Dec-17 22:00 34.120105 -118.114868 281 5736ft 105kts
06-Dec-17 22:01 34.122786 -118.150192 283 5751ft 106kts
06-Dec-17 22:02 34.125507 -118.186335 282 5749ft 108kts
06-Dec-17 22:03 34.128249 -118.222534 282 5748ft 108kts
06-Dec-17 22:04 34.131028 -118.259067 276 5737ft 111kts
06-Dec-17 22:05 34.133753 -118.297106 273 5747ft 115kts
06-Dec-17 22:07 34.136614 -118.335891 273 5746ft 116kts
06-Dec-17 22:08 34.140362 -118.374819 286 5767ft 115kts
06-Dec-17 22:09 34.143804 -118.412966 283 5757ft 113kts
06-Dec-17 22:10 34.146652 -118.450877 283 5758ft 113kts
06-Dec-17 22:11 34.149457 -118.488853 283 5757ft 113kts
06-Dec-17 22:12 34.151813 -118.520893 283 5755ft 113kts
06-Dec-17 22:24 34.188854 -119.041830 280 3228ft 137kts
06-Dec-17 22:25 34.192043 -119.087941 281 2602ft 137kts
06-Dec-17 22:26 34.193602 -119.133764 272 1974ft 135kts
06-Dec-17 22:27 34.191679 -119.177941 273 1428ft 132kts
06-Dec-17 22:28 34.189667 -119.222689 273 864ft 121kts
06-Dec-17 22:29 34.194983 -119.241259 65 508ft 52kts
06-Dec-17 22:30 34.199238 -119.229439 52 385ft 37kts
06-Dec-17 22:31 34.200705 -119.216775 71 60ft 29kts
06-Dec-17 22:32 34.200603 -119.211396 188 46ft 0kts
06-Dec-17 22:33 34.200175 -119.212238 254 46ft 13kts
06-Dec-17 22:34 34.198821 -119.212837 181 46ft 0kts
06-Dec-17 22:35 34.198821 -119.212837 181 46ft 0kts
06-Dec-17 22:36 34.198821 -119.212837 181 46ft 0kts
06-Dec-17 22:37 33.883017 -117.251550 55 1538ft 0kts
06-Dec-17 22:38 33.883017 -117.251550 55 1538ft 0kts
06-Dec-17 22:39 33.883017 -117.251550 55 1538ft 0kts
06-Dec-17 22:40 33.883017 -117.251550 55 1538ft 0kts

Navigation Log

Ident Type
Flight plan parsing failed, navigation log unavailable